sensor_id;sensor_type;location;lat;lon;timestamp;temperature;humidity
25192;DHT22;13143;50.924;5.320;2023-02-01T00:00:23;8.10;99.90
25192;DHT22;13143;50.924;5.320;2023-02-01T00:02:48;8.10;99.90
25192;DHT22;13143;50.924;5.320;2023-02-01T00:05:14;8.10;99.90
25192;DHT22;13143;50.924;5.320;2023-02-01T00:07:40;8.10;99.90
25192;DHT22;13143;50.924;5.320;2023-02-01T00:10:06;8.10;99.90
25192;DHT22;13143;50.924;5.320;2023-02-01T00:12:32;8.10;99.90
25192;DHT22;13143;50.924;5.320;2023-02-01T00:14:58;8.10;99.90
25192;DHT22;13143;50.924;5.320;2023-02-01T00:17:24;8.10;99.90
25192;DHT22;13143;50.924;5.320;2023-02-01T00:19:50;8.10;99.90
25192;DHT22;13143;50.924;5.320;2023-02-01T00:22:15;8.10;99.90
25192;DHT22;13143;50.924;5.320;2023-02-01T00:24:41;8.10;99.90
25192;DHT22;13143;50.924;5.320;2023-02-01T00:27:06;8.10;99.90
25192;DHT22;13143;50.924;5.320;2023-02-01T00:29:32;8.10;99.90
25192;DHT22;13143;50.924;5.320;2023-02-01T00:31:58;8.10;99.90
25192;DHT22;13143;50.924;5.320;2023-02-01T00:34:24;8.10;99.90
25192;DHT22;13143;50.924;5.320;2023-02-01T00:36:49;8.10;99.90
25192;DHT22;13143;50.924;5.320;2023-02-01T00:39:15;8.10;99.90
25192;DHT22;13143;50.924;5.320;2023-02-01T00:41:41;8.10;99.90
25192;DHT22;13143;50.924;5.320;2023-02-01T00:44:07;8.10;99.90
25192;DHT22;13143;50.924;5.320;2023-02-01T00:46:33;8.10;99.90
25192;DHT22;13143;50.924;5.320;2023-02-01T00:48:59;8.10;99.90
25192;DHT22;13143;50.924;5.320;2023-02-01T00:51:27;8.10;99.90
25192;DHT22;13143;50.924;5.320;2023-02-01T00:53:53;8.00;99.90
25192;DHT22;13143;50.924;5.320;2023-02-01T00:56:19;8.00;99.90
25192;DHT22;13143;50.924;5.320;2023-02-01T00:58:45;8.10;99.90
25192;DHT22;13143;50.924;5.320;2023-02-01T01:01:14;8.00;99.90
25192;DHT22;13143;50.924;5.320;2023-02-01T01:03:41;8.10;99.90
25192;DHT22;13143;50.924;5.320;2023-02-01T01:06:15;8.00;99.90
25192;DHT22;13143;50.924;5.320;2023-02-01T01:08:42;8.00;99.90
25192;DHT22;13143;50.924;5.320;2023-02-01T01:11:17;8.00;99.90
25192;DHT22;13143;50.924;5.320;2023-02-01T01:13:46;8.00;99.90
25192;DHT22;13143;50.924;5.320;2023-02-01T01:16:12;8.00;99.90
25192;DHT22;13143;50.924;5.320;2023-02-01T01:18:38;8.00;99.90
25192;DHT22;13143;50.924;5.320;2023-02-01T01:21:08;8.10;99.90
25192;DHT22;13143;50.924;5.320;2023-02-01T01:23:35;8.00;99.90
25192;DHT22;13143;50.924;5.320;2023-02-01T01:26:15;8.00;99.90
25192;DHT22;13143;50.924;5.320;2023-02-01T01:28:41;8.00;99.90
25192;DHT22;13143;50.924;5.320;2023-02-01T01:31:11;8.00;99.90
25192;DHT22;13143;50.924;5.320;2023-02-01T01:33:37;8.00;99.90
25192;DHT22;13143;50.924;5.320;2023-02-01T01:36:08;8.10;99.90
25192;DHT22;13143;50.924;5.320;2023-02-01T01:38:38;8.00;99.90
25192;DHT22;13143;50.924;5.320;2023-02-01T01:41:04;8.10;99.90
25192;DHT22;13143;50.924;5.320;2023-02-01T01:46:25;8.10;99.90
25192;DHT22;13143;50.924;5.320;2023-02-01T01:49:11;8.00;99.90
25192;DHT22;13143;50.924;5.320;2023-02-01T01:51:44;8.00;99.90
25192;DHT22;13143;50.924;5.320;2023-02-01T01:54:53;8.00;99.90
25192;DHT22;13143;50.924;5.320;2023-02-01T01:57:04;8.00;99.90
25192;DHT22;13143;50.924;5.320;2023-02-01T01:59:33;8.00;99.90
25192;DHT22;13143;50.924;5.320;2023-02-01T02:02:00;8.00;99.90
25192;DHT22;13143;50.924;5.320;2023-02-01T02:04:26;8.00;99.90
25192;DHT22;13143;50.924;5.320;2023-02-01T02:07:01;8.00;99.90
25192;DHT22;13143;50.924;5.320;2023-02-01T02:09:28;8.00;99.90
25192;DHT22;13143;50.924;5.320;2023-02-01T02:11:53;8.00;99.90
25192;DHT22;13143;50.924;5.320;2023-02-01T02:14:22;8.00;99.90
25192;DHT22;13143;50.924;5.320;2023-02-01T02:17:31;8.00;99.90
25192;DHT22;13143;50.924;5.320;2023-02-01T02:27:57;8.00;99.90
25192;DHT22;13143;50.924;5.320;2023-02-01T02:39:07;8.00;99.90
25192;DHT22;13143;50.924;5.320;2023-02-01T02:41:56;8.00;99.90
25192;DHT22;13143;50.924;5.320;2023-02-01T02:45:08;8.00;99.90
25192;DHT22;13143;50.924;5.320;2023-02-01T02:50:40;8.00;99.90
25192;DHT22;13143;50.924;5.320;2023-02-01T02:56:30;8.00;99.90
25192;DHT22;13143;50.924;5.320;2023-02-01T02:59:18;8.00;99.90
25192;DHT22;13143;50.924;5.320;2023-02-01T03:02:04;8.00;99.90
25192;DHT22;13143;50.924;5.320;2023-02-01T03:04:53;8.00;99.90
25192;DHT22;13143;50.924;5.320;2023-02-01T03:07:53;8.00;99.90
25192;DHT22;13143;50.924;5.320;2023-02-01T03:13:14;8.00;99.90
25192;DHT22;13143;50.924;5.320;2023-02-01T03:16:07;8.00;99.90
25192;DHT22;13143;50.924;5.320;2023-02-01T03:21:34;8.00;99.90
25192;DHT22;13143;50.924;5.320;2023-02-01T03:24:04;8.00;99.90
25192;DHT22;13143;50.924;5.320;2023-02-01T03:26:37;8.00;99.90
25192;DHT22;13143;50.924;5.320;2023-02-01T03:29:15;8.00;99.90
25192;DHT22;13143;50.924;5.320;2023-02-01T03:31:41;8.00;99.90
25192;DHT22;13143;50.924;5.320;2023-02-01T03:34:08;8.00;99.90
25192;DHT22;13143;50.924;5.320;2023-02-01T03:36:49;7.90;99.90
25192;DHT22;13143;50.924;5.320;2023-02-01T03:39:20;8.00;99.90
25192;DHT22;13143;50.924;5.320;2023-02-01T03:41:53;8.00;99.90
25192;DHT22;13143;50.924;5.320;2023-02-01T03:44:29;8.00;99.90
25192;DHT22;13143;50.924;5.320;2023-02-01T03:50:07;7.90;99.90
25192;DHT22;13143;50.924;5.320;2023-02-01T03:52:48;7.90;99.90
25192;DHT22;13143;50.924;5.320;2023-02-01T03:55:18;7.90;99.90
25192;DHT22;13143;50.924;5.320;2023-02-01T04:00:34;7.90;99.90
25192;DHT22;13143;50.924;5.320;2023-02-01T04:03:00;7.90;99.90
25192;DHT22;13143;50.924;5.320;2023-02-01T04:05:25;7.90;99.90
25192;DHT22;13143;50.924;5.320;2023-02-01T04:07:51;7.90;99.90
25192;DHT22;13143;50.924;5.320;2023-02-01T04:10:17;7.90;99.90
25192;DHT22;13143;50.924;5.320;2023-02-01T04:12:42;7.90;99.90
25192;DHT22;13143;50.924;5.320;2023-02-01T04:15:08;7.90;99.90
25192;DHT22;13143;50.924;5.320;2023-02-01T04:17:34;7.90;99.90
25192;DHT22;13143;50.924;5.320;2023-02-01T04:20:00;7.90;99.90
25192;DHT22;13143;50.924;5.320;2023-02-01T04:22:25;7.80;99.90
25192;DHT22;13143;50.924;5.320;2023-02-01T04:24:51;7.90;99.90
25192;DHT22;13143;50.924;5.320;2023-02-01T04:27:17;7.80;99.90
25192;DHT22;13143;50.924;5.320;2023-02-01T04:29:42;7.90;99.90
25192;DHT22;13143;50.924;5.320;2023-02-01T04:32:10;7.80;99.90
25192;DHT22;13143;50.924;5.320;2023-02-01T04:34:36;7.80;99.90
25192;DHT22;13143;50.924;5.320;2023-02-01T04:37:01;7.80;99.90
25192;DHT22;13143;50.924;5.320;2023-02-01T04:39:27;7.80;99.90
25192;DHT22;13143;50.924;5.320;2023-02-01T04:41:53;7.80;99.90
25192;DHT22;13143;50.924;5.320;2023-02-01T04:44:19;7.80;99.90
25192;DHT22;13143;50.924;5.320;2023-02-01T04:46:46;7.80;99.90
25192;DHT22;13143;50.924;5.320;2023-02-01T04:49:13;7.80;99.90
25192;DHT22;13143;50.924;5.320;2023-02-01T04:51:39;7.80;99.90
25192;DHT22;13143;50.924;5.320;2023-02-01T04:54:05;7.80;99.90
25192;DHT22;13143;50.924;5.320;2023-02-01T04:56:31;7.80;99.90
25192;DHT22;13143;50.924;5.320;2023-02-01T04:58:56;7.80;99.90
25192;DHT22;13143;50.924;5.320;2023-02-01T05:01:22;7.80;99.90
25192;DHT22;13143;50.924;5.320;2023-02-01T05:03:50;7.80;99.90
25192;DHT22;13143;50.924;5.320;2023-02-01T05:06:15;7.70;99.90
25192;DHT22;13143;50.924;5.320;2023-02-01T05:08:41;7.70;99.90
25192;DHT22;13143;50.924;5.320;2023-02-01T05:11:06;7.70;99.90
25192;DHT22;13143;50.924;5.320;2023-02-01T05:13:52;7.70;99.90
25192;DHT22;13143;50.924;5.320;2023-02-01T05:16:18;7.70;99.90
25192;DHT22;13143;50.924;5.320;2023-02-01T05:18:43;7.70;99.90
25192;DHT22;13143;50.924;5.320;2023-02-01T05:21:09;7.70;99.90
25192;DHT22;13143;50.924;5.320;2023-02-01T05:23:35;7.70;99.90
25192;DHT22;13143;50.924;5.320;2023-02-01T05:26:20;7.70;99.90
25192;DHT22;13143;50.924;5.320;2023-02-01T05:28:46;7.70;99.90
25192;DHT22;13143;50.924;5.320;2023-02-01T05:31:12;7.70;99.90
25192;DHT22;13143;50.924;5.320;2023-02-01T05:33:37;7.70;99.90
25192;DHT22;13143;50.924;5.320;2023-02-01T05:36:03;7.60;99.90
25192;DHT22;13143;50.924;5.320;2023-02-01T05:38:29;7.70;99.90
25192;DHT22;13143;50.924;5.320;2023-02-01T05:40:57;7.60;99.90
25192;DHT22;13143;50.924;5.320;2023-02-01T05:43:23;7.70;99.90
25192;DHT22;13143;50.924;5.320;2023-02-01T05:45:48;7.60;99.90
25192;DHT22;13143;50.924;5.320;2023-02-01T05:48:14;7.60;99.90
25192;DHT22;13143;50.924;5.320;2023-02-01T05:50:40;7.60;99.90
25192;DHT22;13143;50.924;5.320;2023-02-01T05:53:06;7.60;99.90
25192;DHT22;13143;50.924;5.320;2023-02-01T05:55:32;7.60;99.90
25192;DHT22;13143;50.924;5.320;2023-02-01T05:57:57;7.60;99.90
25192;DHT22;13143;50.924;5.320;2023-02-01T06:00:23;7.60;99.90
25192;DHT22;13143;50.924;5.320;2023-02-01T06:02:49;7.60;99.90
25192;DHT22;13143;50.924;5.320;2023-02-01T06:05:15;7.50;99.90
25192;DHT22;13143;50.924;5.320;2023-02-01T06:07:40;7.60;99.90
25192;DHT22;13143;50.924;5.320;2023-02-01T06:10:06;7.50;99.90
25192;DHT22;13143;50.924;5.320;2023-02-01T06:12:32;7.50;99.90
25192;DHT22;13143;50.924;5.320;2023-02-01T06:14:58;7.50;99.90
25192;DHT22;13143;50.924;5.320;2023-02-01T06:17:24;7.50;99.90
25192;DHT22;13143;50.924;5.320;2023-02-01T06:19:50;7.50;99.90
25192;DHT22;13143;50.924;5.320;2023-02-01T06:22:15;7.50;99.90
25192;DHT22;13143;50.924;5.320;2023-02-01T06:24:42;7.50;99.90
25192;DHT22;13143;50.924;5.320;2023-02-01T06:27:07;7.50;99.90
25192;DHT22;13143;50.924;5.320;2023-02-01T06:29:34;7.50;99.90
25192;DHT22;13143;50.924;5.320;2023-02-01T06:32:00;7.50;99.90
25192;DHT22;13143;50.924;5.320;2023-02-01T06:34:26;7.40;99.90
25192;DHT22;13143;50.924;5.320;2023-02-01T06:36:51;7.40;99.90
25192;DHT22;13143;50.924;5.320;2023-02-01T06:39:17;7.40;99.90
25192;DHT22;13143;50.924;5.320;2023-02-01T06:41:46;7.40;99.90
25192;DHT22;13143;50.924;5.320;2023-02-01T06:44:12;7.40;99.90
25192;DHT22;13143;50.924;5.320;2023-02-01T06:46:38;7.40;99.90
25192;DHT22;13143;50.924;5.320;2023-02-01T06:49:03;7.40;99.90
25192;DHT22;13143;50.924;5.320;2023-02-01T06:51:29;7.40;99.90
25192;DHT22;13143;50.924;5.320;2023-02-01T06:53:56;7.40;99.90
25192;DHT22;13143;50.924;5.320;2023-02-01T06:56:21;7.30;99.90
25192;DHT22;13143;50.924;5.320;2023-02-01T06:58:47;7.30;99.90
25192;DHT22;13143;50.924;5.320;2023-02-01T07:01:13;7.30;99.90
25192;DHT22;13143;50.924;5.320;2023-02-01T07:03:39;7.30;99.90
25192;DHT22;13143;50.924;5.320;2023-02-01T07:06:06;7.30;99.90
25192;DHT22;13143;50.924;5.320;2023-02-01T07:08:34;7.30;99.90
25192;DHT22;13143;50.924;5.320;2023-02-01T07:11:08;7.30;99.90
25192;DHT22;13143;50.924;5.320;2023-02-01T07:13:34;7.30;99.90
25192;DHT22;13143;50.924;5.320;2023-02-01T07:16:01;7.30;99.90
25192;DHT22;13143;50.924;5.320;2023-02-01T07:18:30;7.30;99.90
25192;DHT22;13143;50.924;5.320;2023-02-01T07:20:56;7.20;99.90
25192;DHT22;13143;50.924;5.320;2023-02-01T07:23:22;7.20;99.90
25192;DHT22;13143;50.924;5.320;2023-02-01T07:25:48;7.20;99.90
25192;DHT22;13143;50.924;5.320;2023-02-01T07:28:14;7.20;99.90
25192;DHT22;13143;50.924;5.320;2023-02-01T07:30:40;7.20;99.90
25192;DHT22;13143;50.924;5.320;2023-02-01T07:33:07;7.20;99.90
25192;DHT22;13143;50.924;5.320;2023-02-01T07:35:32;7.20;99.90
25192;DHT22;13143;50.924;5.320;2023-02-01T07:37:58;7.20;99.90
25192;DHT22;13143;50.924;5.320;2023-02-01T07:40:24;7.20;99.90
25192;DHT22;13143;50.924;5.320;2023-02-01T07:42:57;7.20;99.90
25192;DHT22;13143;50.924;5.320;2023-02-01T07:45:23;7.20;99.90
25192;DHT22;13143;50.924;5.320;2023-02-01T07:47:50;7.20;99.90
25192;DHT22;13143;50.924;5.320;2023-02-01T07:50:17;7.10;99.90
25192;DHT22;13143;50.924;5.320;2023-02-01T07:52:42;7.10;99.90
25192;DHT22;13143;50.924;5.320;2023-02-01T07:55:08;7.10;99.90
25192;DHT22;13143;50.924;5.320;2023-02-01T07:57:34;7.10;99.90
25192;DHT22;13143;50.924;5.320;2023-02-01T07:59:59;7.10;99.90
25192;DHT22;13143;50.924;5.320;2023-02-01T08:02:43;7.10;99.90
25192;DHT22;13143;50.924;5.320;2023-02-01T08:05:09;7.10;99.90
25192;DHT22;13143;50.924;5.320;2023-02-01T08:07:35;7.10;99.90
25192;DHT22;13143;50.924;5.320;2023-02-01T08:10:00;7.10;99.90
25192;DHT22;13143;50.924;5.320;2023-02-01T08:12:26;7.10;99.90
25192;DHT22;13143;50.924;5.320;2023-02-01T08:14:53;7.10;99.90
25192;DHT22;13143;50.924;5.320;2023-02-01T08:17:19;7.10;99.90
25192;DHT22;13143;50.924;5.320;2023-02-01T08:19:45;7.10;99.90
25192;DHT22;13143;50.924;5.320;2023-02-01T08:22:10;7.10;99.90
25192;DHT22;13143;50.924;5.320;2023-02-01T08:24:36;7.00;99.90
25192;DHT22;13143;50.924;5.320;2023-02-01T08:27:05;7.00;99.90
25192;DHT22;13143;50.924;5.320;2023-02-01T08:29:31;7.00;99.90
25192;DHT22;13143;50.924;5.320;2023-02-01T08:31:56;7.00;99.90
25192;DHT22;13143;50.924;5.320;2023-02-01T08:34:22;7.00;99.90
25192;DHT22;13143;50.924;5.320;2023-02-01T08:36:48;7.00;99.90
25192;DHT22;13143;50.924;5.320;2023-02-01T08:39:14;7.00;99.90
25192;DHT22;13143;50.924;5.320;2023-02-01T08:41:39;7.00;99.90
25192;DHT22;13143;50.924;5.320;2023-02-01T08:44:07;7.00;99.90
25192;DHT22;13143;50.924;5.320;2023-02-01T08:46:33;7.00;99.90
25192;DHT22;13143;50.924;5.320;2023-02-01T08:48:58;7.00;99.90
25192;DHT22;13143;50.924;5.320;2023-02-01T08:51:24;7.00;99.90
25192;DHT22;13143;50.924;5.320;2023-02-01T08:53:50;7.00;99.90
25192;DHT22;13143;50.924;5.320;2023-02-01T08:56:18;7.00;99.90
25192;DHT22;13143;50.924;5.320;2023-02-01T08:58:44;7.10;99.90
25192;DHT22;13143;50.924;5.320;2023-02-01T09:01:13;7.10;99.90
25192;DHT22;13143;50.924;5.320;2023-02-01T09:03:39;7.10;99.90
25192;DHT22;13143;50.924;5.320;2023-02-01T09:06:07;7.10;99.90
25192;DHT22;13143;50.924;5.320;2023-02-01T09:08:33;7.10;99.90
25192;DHT22;13143;50.924;5.320;2023-02-01T09:11:13;7.10;99.90
25192;DHT22;13143;50.924;5.320;2023-02-01T09:13:38;7.10;99.90
25192;DHT22;13143;50.924;5.320;2023-02-01T09:16:04;7.10;99.90
25192;DHT22;13143;50.924;5.320;2023-02-01T09:18:30;7.10;99.90
25192;DHT22;13143;50.924;5.320;2023-02-01T09:20:56;7.10;99.90
25192;DHT22;13143;50.924;5.320;2023-02-01T09:23:22;7.10;99.90
25192;DHT22;13143;50.924;5.320;2023-02-01T09:25:47;7.10;99.90
25192;DHT22;13143;50.924;5.320;2023-02-01T09:28:16;7.10;99.90
25192;DHT22;13143;50.924;5.320;2023-02-01T09:30:41;7.10;99.90
25192;DHT22;13143;50.924;5.320;2023-02-01T09:33:07;7.10;99.90
25192;DHT22;13143;50.924;5.320;2023-02-01T09:35:33;7.20;99.90
25192;DHT22;13143;50.924;5.320;2023-02-01T09:37:58;7.20;99.90
25192;DHT22;13143;50.924;5.320;2023-02-01T09:40:24;7.20;99.90
25192;DHT22;13143;50.924;5.320;2023-02-01T09:43:15;7.20;99.90
25192;DHT22;13143;50.924;5.320;2023-02-01T09:48:27;7.20;99.90
25192;DHT22;13143;50.924;5.320;2023-02-01T09:50:55;7.20;99.90
25192;DHT22;13143;50.924;5.320;2023-02-01T09:53:32;7.20;99.90
25192;DHT22;13143;50.924;5.320;2023-02-01T09:56:09;7.20;99.90
25192;DHT22;13143;50.924;5.320;2023-02-01T10:01:31;7.20;99.90
25192;DHT22;13143;50.924;5.320;2023-02-01T10:04:08;7.30;99.90
25192;DHT22;13143;50.924;5.320;2023-02-01T10:18:14;7.30;99.90
25192;DHT22;13143;50.924;5.320;2023-02-01T10:20:49;7.40;99.90
25192;DHT22;13143;50.924;5.320;2023-02-01T10:25:55;7.40;99.90
25192;DHT22;13143;50.924;5.320;2023-02-01T10:28:23;7.40;99.90
25192;DHT22;13143;50.924;5.320;2023-02-01T10:30:53;7.40;99.90
25192;DHT22;13143;50.924;5.320;2023-02-01T10:33:32;7.50;99.90
25192;DHT22;13143;50.924;5.320;2023-02-01T10:36:10;7.50;99.90
25192;DHT22;13143;50.924;5.320;2023-02-01T10:38:39;7.50;99.90
25192;DHT22;13143;50.924;5.320;2023-02-01T10:41:13;7.50;99.90
25192;DHT22;13143;50.924;5.320;2023-02-01T10:43:40;7.50;99.90
25192;DHT22;13143;50.924;5.320;2023-02-01T10:46:07;7.50;99.90
25192;DHT22;13143;50.924;5.320;2023-02-01T10:48:33;7.60;99.90
25192;DHT22;13143;50.924;5.320;2023-02-01T10:51:07;7.60;99.90
25192;DHT22;13143;50.924;5.320;2023-02-01T10:56:13;7.70;99.90
25192;DHT22;13143;50.924;5.320;2023-02-01T10:58:46;7.70;99.90
25192;DHT22;13143;50.924;5.320;2023-02-01T11:01:16;7.70;99.90
25192;DHT22;13143;50.924;5.320;2023-02-01T11:03:54;7.70;99.90
25192;DHT22;13143;50.924;5.320;2023-02-01T11:06:27;7.80;99.90
25192;DHT22;13143;50.924;5.320;2023-02-01T11:09:00;7.80;99.90
25192;DHT22;13143;50.924;5.320;2023-02-01T11:11:26;7.80;99.90
25192;DHT22;13143;50.924;5.320;2023-02-01T11:13:58;7.80;99.90
25192;DHT22;13143;50.924;5.320;2023-02-01T11:16:35;7.80;99.90
25192;DHT22;13143;50.924;5.320;2023-02-01T11:19:02;7.90;99.90
25192;DHT22;13143;50.924;5.320;2023-02-01T11:21:28;7.90;99.90
25192;DHT22;13143;50.924;5.320;2023-02-01T11:23:54;7.90;99.90
25192;DHT22;13143;50.924;5.320;2023-02-01T11:26:22;8.00;99.90
25192;DHT22;13143;50.924;5.320;2023-02-01T11:28:57;8.00;99.90
25192;DHT22;13143;50.924;5.320;2023-02-01T11:31:25;8.10;99.90
25192;DHT22;13143;50.924;5.320;2023-02-01T11:34:37;8.10;99.90
25192;DHT22;13143;50.924;5.320;2023-02-01T11:36:46;8.10;99.90
25192;DHT22;13143;50.924;5.320;2023-02-01T11:41:59;8.10;99.90
25192;DHT22;13143;50.924;5.320;2023-02-01T11:44:32;8.20;99.90
25192;DHT22;13143;50.924;5.320;2023-02-01T11:47:27;8.20;99.90
25192;DHT22;13143;50.924;5.320;2023-02-01T11:50:02;8.20;99.90
25192;DHT22;13143;50.924;5.320;2023-02-01T11:58:30;8.30;99.90
25192;DHT22;13143;50.924;5.320;2023-02-01T12:28:01;8.70;99.90
25192;DHT22;13143;50.924;5.320;2023-02-01T12:30:43;8.70;99.90
25192;DHT22;13143;50.924;5.320;2023-02-01T12:33:59;8.70;99.90
25192;DHT22;13143;50.924;5.320;2023-02-01T12:36:16;8.70;99.90
25192;DHT22;13143;50.924;5.320;2023-02-01T12:39:13;8.70;99.90
25192;DHT22;13143;50.924;5.320;2023-02-01T12:44:54;8.80;99.90
25192;DHT22;13143;50.924;5.320;2023-02-01T12:47:27;8.80;99.90
25192;DHT22;13143;50.924;5.320;2023-02-01T12:52:42;8.80;99.90
25192;DHT22;13143;50.924;5.320;2023-02-01T12:57:45;8.90;99.90
25192;DHT22;13143;50.924;5.320;2023-02-01T13:00:16;8.90;99.90
25192;DHT22;13143;50.924;5.320;2023-02-01T13:05:25;8.90;99.90
25192;DHT22;13143;50.924;5.320;2023-02-01T13:13:17;8.90;99.90
25192;DHT22;13143;50.924;5.320;2023-02-01T13:16:03;8.90;99.90
25192;DHT22;13143;50.924;5.320;2023-02-01T13:18:35;9.00;99.90
25192;DHT22;13143;50.924;5.320;2023-02-01T13:23:31;9.00;99.90
25192;DHT22;13143;50.924;5.320;2023-02-01T13:25:57;9.00;99.90
25192;DHT22;13143;50.924;5.320;2023-02-01T13:28:48;9.00;99.90
25192;DHT22;13143;50.924;5.320;2023-02-01T13:37:02;9.00;99.90
25192;DHT22;13143;50.924;5.320;2023-02-01T13:39:36;9.00;99.90
25192;DHT22;13143;50.924;5.320;2023-02-01T13:42:15;9.00;99.90
25192;DHT22;13143;50.924;5.320;2023-02-01T13:44:50;9.00;99.90
25192;DHT22;13143;50.924;5.320;2023-02-01T13:49:57;9.00;99.90
25192;DHT22;13143;50.924;5.320;2023-02-01T13:52:34;9.10;99.90
25192;DHT22;13143;50.924;5.320;2023-02-01T13:57:47;9.10;99.90
25192;DHT22;13143;50.924;5.320;2023-02-01T14:00:34;9.10;99.90
25192;DHT22;13143;50.924;5.320;2023-02-01T14:13:39;9.20;99.90
25192;DHT22;13143;50.924;5.320;2023-02-01T14:23:42;9.20;99.90
25192;DHT22;13143;50.924;5.320;2023-02-01T14:26:12;9.20;99.90
25192;DHT22;13143;50.924;5.320;2023-02-01T14:31:32;9.20;99.90
25192;DHT22;13143;50.924;5.320;2023-02-01T14:34:02;9.20;99.90
25192;DHT22;13143;50.924;5.320;2023-02-01T14:36:49;9.30;99.90
25192;DHT22;13143;50.924;5.320;2023-02-01T14:41:58;9.30;99.90
25192;DHT22;13143;50.924;5.320;2023-02-01T14:44:29;9.30;99.90
25192;DHT22;13143;50.924;5.320;2023-02-01T14:47:27;9.30;99.90
25192;DHT22;13143;50.924;5.320;2023-02-01T14:50:13;9.30;99.90
25192;DHT22;13143;50.924;5.320;2023-02-01T14:52:47;9.30;99.90
25192;DHT22;13143;50.924;5.320;2023-02-01T14:55:24;9.30;99.90
25192;DHT22;13143;50.924;5.320;2023-02-01T14:57:53;9.30;99.90
25192;DHT22;13143;50.924;5.320;2023-02-01T15:00:25;9.30;99.90
25192;DHT22;13143;50.924;5.320;2023-02-01T15:02:53;9.30;99.90
25192;DHT22;13143;50.924;5.320;2023-02-01T15:05:41;9.30;99.90
25192;DHT22;13143;50.924;5.320;2023-02-01T15:08:17;9.40;99.90
25192;DHT22;13143;50.924;5.320;2023-02-01T15:10:46;9.40;99.90
25192;DHT22;13143;50.924;5.320;2023-02-01T15:13:24;9.40;99.90
25192;DHT22;13143;50.924;5.320;2023-02-01T15:18:25;9.40;99.90
25192;DHT22;13143;50.924;5.320;2023-02-01T15:20:59;9.40;99.90
25192;DHT22;13143;50.924;5.320;2023-02-01T15:23:25;9.40;99.90
25192;DHT22;13143;50.924;5.320;2023-02-01T15:25:52;9.40;99.90
25192;DHT22;13143;50.924;5.320;2023-02-01T15:28:17;9.40;99.90
25192;DHT22;13143;50.924;5.320;2023-02-01T15:30:57;9.40;99.90
25192;DHT22;13143;50.924;5.320;2023-02-01T15:33:25;9.40;99.90
25192;DHT22;13143;50.924;5.320;2023-02-01T15:38:36;9.40;99.90
25192;DHT22;13143;50.924;5.320;2023-02-01T15:41:18;9.40;99.90
25192;DHT22;13143;50.924;5.320;2023-02-01T15:43:50;9.50;99.90
25192;DHT22;13143;50.924;5.320;2023-02-01T15:48:59;9.50;99.90
25192;DHT22;13143;50.924;5.320;2023-02-01T15:51:28;9.50;99.90
25192;DHT22;13143;50.924;5.320;2023-02-01T15:54:04;9.50;99.90
25192;DHT22;13143;50.924;5.320;2023-02-01T15:56:35;9.50;99.90
25192;DHT22;13143;50.924;5.320;2023-02-01T15:59:03;9.50;99.90
25192;DHT22;13143;50.924;5.320;2023-02-01T16:01:30;9.50;99.90
25192;DHT22;13143;50.924;5.320;2023-02-01T16:04:19;9.50;99.90
25192;DHT22;13143;50.924;5.320;2023-02-01T16:06:47;9.50;99.90
25192;DHT22;13143;50.924;5.320;2023-02-01T16:09:14;9.50;99.90
25192;DHT22;13143;50.924;5.320;2023-02-01T16:11:51;9.50;99.90
25192;DHT22;13143;50.924;5.320;2023-02-01T16:14:17;9.50;99.90
25192;DHT22;13143;50.924;5.320;2023-02-01T16:16:43;9.50;99.90
25192;DHT22;13143;50.924;5.320;2023-02-01T16:19:09;9.50;99.90
25192;DHT22;13143;50.924;5.320;2023-02-01T16:21:34;9.50;99.90
25192;DHT22;13143;50.924;5.320;2023-02-01T16:24:00;9.50;99.90
25192;DHT22;13143;50.924;5.320;2023-02-01T16:26:32;9.50;99.90
25192;DHT22;13143;50.924;5.320;2023-02-01T16:28:59;9.50;99.90
25192;DHT22;13143;50.924;5.320;2023-02-01T16:31:33;9.50;99.90
25192;DHT22;13143;50.924;5.320;2023-02-01T16:33:59;9.50;99.90
25192;DHT22;13143;50.924;5.320;2023-02-01T16:36:25;9.50;99.90
25192;DHT22;13143;50.924;5.320;2023-02-01T16:38:52;9.50;99.90
25192;DHT22;13143;50.924;5.320;2023-02-01T16:41:22;9.50;99.90
25192;DHT22;13143;50.924;5.320;2023-02-01T16:43:52;9.50;99.90
25192;DHT22;13143;50.924;5.320;2023-02-01T16:46:24;9.50;99.90
25192;DHT22;13143;50.924;5.320;2023-02-01T16:48:56;9.50;99.90
25192;DHT22;13143;50.924;5.320;2023-02-01T16:51:24;9.50;99.90
25192;DHT22;13143;50.924;5.320;2023-02-01T16:53:51;9.50;99.90
25192;DHT22;13143;50.924;5.320;2023-02-01T16:56:23;9.50;99.90
25192;DHT22;13143;50.924;5.320;2023-02-01T16:58:49;9.50;99.90
25192;DHT22;13143;50.924;5.320;2023-02-01T17:01:16;9.50;99.90
25192;DHT22;13143;50.924;5.320;2023-02-01T17:03:42;9.50;99.90
25192;DHT22;13143;50.924;5.320;2023-02-01T17:06:15;9.50;99.90
25192;DHT22;13143;50.924;5.320;2023-02-01T17:08:44;9.50;99.90
25192;DHT22;13143;50.924;5.320;2023-02-01T17:11:11;9.50;99.90
25192;DHT22;13143;50.924;5.320;2023-02-01T17:13:38;9.50;99.90
25192;DHT22;13143;50.924;5.320;2023-02-01T17:18:39;9.50;99.90
25192;DHT22;13143;50.924;5.320;2023-02-01T17:21:05;9.50;99.90
25192;DHT22;13143;50.924;5.320;2023-02-01T17:23:32;9.50;99.90
25192;DHT22;13143;50.924;5.320;2023-02-01T17:25:58;9.50;99.90
25192;DHT22;13143;50.924;5.320;2023-02-01T17:28:24;9.50;99.90
25192;DHT22;13143;50.924;5.320;2023-02-01T17:30:50;9.50;99.90
25192;DHT22;13143;50.924;5.320;2023-02-01T17:33:25;9.50;99.90
25192;DHT22;13143;50.924;5.320;2023-02-01T17:35:53;9.50;99.90
25192;DHT22;13143;50.924;5.320;2023-02-01T17:38:19;9.50;99.90
25192;DHT22;13143;50.924;5.320;2023-02-01T17:40:44;9.50;99.90
25192;DHT22;13143;50.924;5.320;2023-02-01T17:43:20;9.50;99.90
25192;DHT22;13143;50.924;5.320;2023-02-01T17:45:54;9.50;99.90
25192;DHT22;13143;50.924;5.320;2023-02-01T17:48:21;9.50;99.90
25192;DHT22;13143;50.924;5.320;2023-02-01T17:50:49;9.50;99.90
25192;DHT22;13143;50.924;5.320;2023-02-01T17:53:24;9.50;99.90
25192;DHT22;13143;50.924;5.320;2023-02-01T17:55:50;9.50;99.90
25192;DHT22;13143;50.924;5.320;2023-02-01T17:58:17;9.50;99.90
25192;DHT22;13143;50.924;5.320;2023-02-01T18:00:44;9.40;99.90
25192;DHT22;13143;50.924;5.320;2023-02-01T18:03:26;9.50;99.90
25192;DHT22;13143;50.924;5.320;2023-02-01T18:05:53;9.40;99.90
25192;DHT22;13143;50.924;5.320;2023-02-01T18:08:24;9.40;99.90
25192;DHT22;13143;50.924;5.320;2023-02-01T18:10:56;9.50;99.90
25192;DHT22;13143;50.924;5.320;2023-02-01T18:13:25;9.40;99.90
25192;DHT22;13143;50.924;5.320;2023-02-01T18:15:51;9.40;99.90
25192;DHT22;13143;50.924;5.320;2023-02-01T18:18:17;9.40;99.90
25192;DHT22;13143;50.924;5.320;2023-02-01T18:20:44;9.40;99.90
25192;DHT22;13143;50.924;5.320;2023-02-01T18:23:15;9.40;99.90
25192;DHT22;13143;50.924;5.320;2023-02-01T18:25:42;9.50;99.90
25192;DHT22;13143;50.924;5.320;2023-02-01T18:28:08;9.40;99.90
25192;DHT22;13143;50.924;5.320;2023-02-01T18:30:34;9.40;99.90
25192;DHT22;13143;50.924;5.320;2023-02-01T18:33:00;9.40;99.90
25192;DHT22;13143;50.924;5.320;2023-02-01T18:35:30;9.40;99.90
25192;DHT22;13143;50.924;5.320;2023-02-01T18:37:57;9.40;99.90
25192;DHT22;13143;50.924;5.320;2023-02-01T18:40:29;9.40;99.90